createdAt,value
2018-09-27T00:01:00.192Z,9.70
2018-09-27T00:03:28.454Z,9.70
2018-09-27T00:05:56.626Z,9.70
2018-09-27T00:08:24.846Z,9.60
2018-09-27T00:10:53.039Z,9.60
2018-09-27T00:13:21.364Z,9.60
2018-09-27T00:15:49.551Z,9.60
2018-09-27T00:18:17.747Z,9.60
2018-09-27T00:20:45.963Z,9.60
2018-09-27T00:23:14.202Z,9.60
2018-09-27T00:25:42.453Z,9.60
2018-09-27T00:28:10.983Z,9.60
2018-09-27T00:30:39.173Z,9.60
2018-09-27T00:33:07.409Z,9.60
2018-09-27T00:35:35.607Z,9.50
2018-09-27T00:38:03.772Z,9.50
2018-09-27T00:40:31.972Z,9.50
2018-09-27T00:43:00.233Z,9.40
2018-09-27T00:45:28.447Z,9.40
2018-09-27T00:47:56.631Z,9.30
2018-09-27T00:50:24.811Z,9.30
2018-09-27T00:52:53.267Z,9.30
2018-09-27T00:55:21.504Z,9.30
2018-09-27T00:57:49.721Z,9.30
2018-09-27T01:00:17.975Z,9.30
2018-09-27T01:02:46.241Z,9.30
2018-09-27T01:05:14.456Z,9.30
2018-09-27T01:07:42.634Z,9.30
2018-09-27T01:10:10.840Z,9.20
2018-09-27T01:12:39.071Z,9.20
2018-09-27T01:15:07.299Z,9.20
2018-09-27T01:17:35.490Z,9.20
2018-09-27T01:20:03.725Z,9.20
2018-09-27T01:22:31.905Z,9.10
2018-09-27T01:25:00.149Z,9.10
2018-09-27T01:27:28.398Z,9.00
2018-09-27T01:29:56.673Z,9.00
2018-09-27T01:32:24.873Z,8.90
2018-09-27T01:34:53.071Z,8.90
2018-09-27T01:37:21.252Z,8.90
2018-09-27T01:39:49.454Z,8.80
2018-09-27T01:42:17.675Z,8.80
2018-09-27T01:44:45.863Z,8.90
2018-09-27T01:47:14.102Z,8.90
2018-09-27T01:49:42.253Z,8.90
2018-09-27T01:52:10.481Z,8.80
2018-09-27T01:54:38.914Z,8.70
2018-09-27T01:57:07.289Z,8.70
2018-09-27T01:59:35.539Z,8.60
2018-09-27T02:02:03.717Z,8.50
2018-09-27T02:04:31.915Z,8.50
2018-09-27T02:07:00.141Z,8.40
2018-09-27T02:09:28.343Z,8.40
2018-09-27T02:16:31.858Z,8.30
2018-09-27T02:19:00.035Z,8.30
2018-09-27T02:21:28.231Z,8.20
2018-09-27T02:23:56.451Z,8.10
2018-09-27T02:26:25.029Z,8.10
2018-09-27T02:28:53.263Z,8.10
2018-09-27T02:31:21.488Z,8.00
2018-09-27T02:33:49.701Z,8.00
2018-09-27T02:36:17.901Z,8.00
2018-09-27T02:38:46.088Z,8.00
2018-09-27T02:41:14.308Z,8.10
2018-09-27T02:43:42.556Z,8.10
2018-09-27T02:46:10.725Z,8.10
2018-09-27T02:48:38.918Z,8.10
2018-09-27T02:51:07.116Z,8.10
2018-09-27T02:53:35.305Z,8.10
2018-09-27T02:56:03.493Z,8.10
2018-09-27T02:58:31.691Z,8.10
2018-09-27T03:00:59.890Z,8.10
2018-09-27T03:03:28.136Z,8.10
2018-09-27T03:05:56.323Z,8.10
2018-09-27T03:08:24.511Z,8.00
2018-09-27T03:10:53.063Z,8.00
2018-09-27T03:13:21.266Z,8.00
2018-09-27T03:15:49.468Z,7.90
2018-09-27T03:18:17.681Z,8.00
2018-09-27T03:20:45.910Z,8.00
2018-09-27T03:23:14.102Z,8.00
2018-09-27T03:25:42.292Z,8.00
2018-09-27T03:28:10.508Z,8.00
2018-09-27T03:30:38.695Z,7.90
2018-09-27T03:33:07.026Z,7.90
2018-09-27T03:35:35.221Z,7.90
2018-09-27T03:38:03.402Z,7.90
2018-09-27T03:40:31.633Z,7.80
2018-09-27T03:42:59.845Z,7.80
2018-09-27T03:45:28.091Z,7.80
2018-09-27T03:47:56.280Z,7.80
2018-09-27T03:50:24.479Z,7.80
2018-09-27T03:52:52.874Z,7.80
2018-09-27T03:55:21.068Z,7.90
2018-09-27T03:57:49.252Z,7.90
2018-09-27T04:04:52.506Z,8.00
2018-09-27T04:07:20.711Z,7.80
2018-09-27T04:09:49.000Z,7.70
2018-09-27T04:12:17.192Z,7.60
2018-09-27T04:14:45.397Z,7.60
2018-09-27T04:17:13.594Z,7.60
2018-09-27T04:19:41.810Z,7.60
2018-09-27T04:22:10.033Z,7.50
2018-09-27T04:24:38.216Z,7.50
2018-09-27T04:27:06.413Z,7.40
2018-09-27T04:29:34.605Z,7.40
2018-09-27T04:32:02.831Z,7.50
2018-09-27T04:34:31.144Z,7.50
2018-09-27T04:36:59.346Z,7.50
2018-09-27T04:39:27.534Z,7.50
2018-09-27T04:41:55.722Z,7.50
2018-09-27T04:44:23.987Z,7.50
2018-09-27T04:46:52.180Z,7.40
2018-09-27T04:49:20.373Z,7.40
2018-09-27T04:51:48.683Z,7.30
2018-09-27T04:54:16.814Z,7.30
2018-09-27T04:56:45.138Z,7.30
2018-09-27T04:59:13.343Z,7.30
2018-09-27T05:01:41.544Z,7.30
2018-09-27T05:04:09.744Z,7.30
2018-09-27T05:06:37.922Z,7.30
2018-09-27T05:09:07.257Z,7.30
2018-09-27T05:11:35.456Z,7.30
2018-09-27T05:14:03.943Z,7.40
2018-09-27T05:16:32.184Z,7.40
2018-09-27T05:19:00.379Z,7.40
2018-09-27T05:21:28.590Z,7.40
2018-09-27T05:23:56.777Z,7.40
2018-09-27T05:26:24.992Z,7.40
2018-09-27T05:28:53.175Z,7.40
2018-09-27T05:31:21.398Z,7.40
2018-09-27T05:33:49.656Z,7.40
2018-09-27T05:36:17.835Z,7.50
2018-09-27T05:38:46.012Z,7.40
2018-09-27T05:41:14.201Z,7.40
2018-09-27T05:43:42.415Z,7.40
2018-09-27T05:46:10.601Z,7.40
2018-09-27T05:48:38.786Z,7.40
2018-09-27T05:51:07.077Z,7.40
2018-09-27T05:53:35.355Z,7.40
2018-09-27T05:56:03.595Z,7.40
2018-09-27T05:58:31.789Z,7.50
2018-09-27T06:00:59.989Z,7.50
2018-09-27T06:03:28.206Z,7.60
2018-09-27T06:05:56.731Z,7.70
2018-09-27T06:08:24.971Z,7.70
2018-09-27T06:10:53.191Z,7.70
2018-09-27T06:13:21.387Z,7.70
2018-09-27T06:15:49.649Z,7.70
2018-09-27T06:18:17.849Z,7.70
2018-09-27T06:20:46.023Z,7.70
2018-09-27T06:23:14.464Z,7.70
2018-09-27T06:25:42.663Z,7.70
2018-09-27T06:28:11.177Z,7.80
2018-09-27T06:30:39.415Z,7.80
2018-09-27T06:33:07.633Z,7.80
2018-09-27T06:35:35.841Z,7.90
2018-09-27T06:38:04.055Z,7.90
2018-09-27T06:40:32.275Z,8.00
2018-09-27T06:43:00.507Z,8.10
2018-09-27T06:45:28.711Z,8.10
2018-09-27T06:47:56.897Z,8.20
2018-09-27T06:50:25.289Z,8.30
2018-09-27T06:52:54.107Z,8.50
2018-09-27T06:55:22.473Z,8.60
2018-09-27T06:57:50.553Z,8.70
2018-09-27T07:00:18.737Z,8.90
2018-09-27T07:02:46.975Z,9.20
2018-09-27T07:05:15.177Z,9.60
2018-09-27T07:07:43.405Z,10.20
2018-09-27T07:10:11.621Z,11.10
2018-09-27T07:12:40.063Z,12.10
2018-09-27T07:15:08.260Z,13.20
2018-09-27T07:17:36.450Z,14.20
2018-09-27T07:20:04.661Z,15.20
2018-09-27T07:22:32.879Z,15.90
2018-09-27T07:25:01.152Z,16.70
2018-09-27T07:27:29.295Z,17.30
2018-09-27T07:29:57.539Z,18.00
2018-09-27T07:32:25.799Z,18.50
2018-09-27T07:34:53.961Z,18.90
2018-09-27T07:37:22.163Z,19.30
2018-09-27T07:39:50.373Z,19.50
2018-09-27T07:42:18.582Z,19.80
2018-09-27T07:44:46.786Z,20.00
2018-09-27T07:47:14.987Z,20.20
2018-09-27T07:49:43.201Z,20.50
2018-09-27T07:52:11.391Z,20.80
2018-09-27T07:54:39.602Z,21.20
2018-09-27T07:57:07.822Z,21.50
2018-09-27T07:59:36.028Z,21.80
2018-09-27T08:02:04.325Z,22.10
2018-09-27T08:04:32.520Z,22.50
2018-09-27T08:07:00.891Z,22.80
2018-09-27T08:09:29.084Z,23.20
2018-09-27T08:11:57.280Z,23.40
2018-09-27T08:14:25.528Z,23.50
2018-09-27T08:16:53.837Z,23.90
2018-09-27T08:19:21.980Z,24.20
2018-09-27T08:21:50.181Z,24.50
2018-09-27T08:24:18.372Z,24.60
2018-09-27T08:26:46.569Z,24.50
2018-09-27T08:29:14.803Z,24.50
2018-09-27T08:31:43.018Z,24.60
2018-09-27T08:34:11.209Z,24.70
2018-09-27T08:36:39.384Z,24.90
2018-09-27T08:39:09.030Z,25.20
2018-09-27T08:41:37.466Z,25.60
2018-09-27T08:44:05.668Z,26.00
2018-09-27T08:46:33.872Z,26.20
2018-09-27T08:49:02.106Z,26.30
2018-09-27T08:51:30.334Z,26.50
2018-09-27T08:53:58.572Z,26.90
2018-09-27T08:56:26.875Z,27.30
2018-09-27T08:58:55.010Z,27.60
2018-09-27T09:01:23.230Z,28.00
2018-09-27T09:03:51.451Z,28.40
2018-09-27T09:06:19.828Z,28.50
2018-09-27T09:08:48.050Z,28.80
2018-09-27T09:11:16.256Z,29.00
2018-09-27T09:13:44.548Z,28.80
2018-09-27T09:16:12.676Z,29.10
2018-09-27T09:18:40.898Z,29.20
2018-09-27T09:21:09.148Z,29.40
2018-09-27T09:23:37.710Z,29.40
2018-09-27T09:26:06.016Z,29.50
2018-09-27T09:28:34.307Z,29.70
2018-09-27T09:31:02.516Z,30.10
2018-09-27T09:33:30.821Z,30.00
2018-09-27T09:35:59.026Z,30.20
2018-09-27T09:38:27.404Z,30.70
2018-09-27T09:40:55.582Z,31.00
2018-09-27T09:43:23.826Z,31.10
2018-09-27T09:45:52.036Z,30.90
2018-09-27T09:48:20.246Z,30.80
2018-09-27T09:50:48.456Z,30.70
2018-09-27T09:53:16.708Z,30.70
2018-09-27T09:55:44.968Z,30.60
2018-09-27T09:58:13.318Z,30.80
2018-09-27T10:00:41.556Z,31.40
2018-09-27T10:03:09.807Z,31.50
2018-09-27T10:05:37.998Z,31.30
2018-09-27T10:08:06.250Z,31.50
2018-09-27T10:10:34.442Z,31.80
2018-09-27T10:13:02.666Z,32.20
2018-09-27T10:15:37.462Z,32.50
2018-09-27T10:18:22.830Z,32.80
2018-09-27T10:20:55.637Z,32.70
2018-09-27T10:23:26.950Z,32.70
2018-09-27T10:25:55.230Z,32.70
2018-09-27T10:28:23.424Z,33.00
2018-09-27T10:30:51.690Z,33.40
2018-09-27T10:33:20.010Z,33.90
2018-09-27T10:35:48.201Z,34.20
2018-09-27T10:38:16.560Z,34.40
2018-09-27T10:40:44.790Z,34.40
2018-09-27T10:43:13.042Z,34.30
2018-09-27T10:45:41.240Z,34.40
2018-09-27T10:48:09.443Z,34.40
2018-09-27T10:50:37.642Z,34.50
2018-09-27T10:53:05.975Z,34.70
2018-09-27T10:55:34.167Z,34.70
2018-09-27T10:58:02.642Z,34.40
2018-09-27T11:00:30.896Z,34.30
2018-09-27T11:02:59.119Z,34.30
2018-09-27T11:05:27.694Z,34.60
2018-09-27T11:07:55.890Z,34.40
2018-09-27T11:10:24.136Z,34.70
2018-09-27T11:12:52.427Z,35.30
2018-09-27T11:15:20.643Z,35.90
2018-09-27T11:17:48.834Z,36.20
2018-09-27T11:20:17.023Z,36.60
2018-09-27T11:22:45.347Z,37.00
2018-09-27T11:25:13.547Z,37.30
2018-09-27T11:27:41.792Z,36.90
2018-09-27T11:30:15.369Z,36.40
2018-09-27T11:32:44.961Z,36.50
2018-09-27T11:35:13.467Z,36.10
2018-09-27T11:37:41.689Z,35.90
2018-09-27T11:40:10.823Z,36.10
2018-09-27T11:42:39.633Z,36.60
2018-09-27T11:45:08.360Z,37.10
2018-09-27T11:47:36.559Z,37.20
2018-09-27T11:50:04.855Z,37.40
2018-09-27T11:52:32.959Z,37.10
2018-09-27T11:55:01.167Z,36.80
2018-09-27T11:57:29.351Z,36.60
2018-09-27T11:59:57.520Z,37.00
2018-09-27T12:02:25.713Z,37.50
2018-09-27T12:04:54.163Z,37.40
2018-09-27T12:07:22.632Z,37.40
2018-09-27T12:09:50.756Z,37.30
2018-09-27T12:12:20.889Z,36.80
2018-09-27T12:14:49.146Z,36.40
2018-09-27T12:17:17.419Z,36.50
2018-09-27T12:19:45.756Z,37.10
2018-09-27T12:22:13.839Z,37.60
2018-09-27T12:24:42.030Z,37.50
2018-09-27T12:27:10.245Z,37.70
2018-09-27T12:29:38.433Z,37.80
2018-09-27T12:32:06.722Z,37.70
2018-09-27T12:34:34.912Z,37.60
2018-09-27T12:37:03.175Z,37.30
2018-09-27T12:39:31.422Z,37.20
2018-09-27T12:41:59.782Z,37.50
2018-09-27T12:44:27.777Z,37.70
2018-09-27T12:46:56.054Z,37.70
2018-09-27T12:49:24.243Z,38.20
2018-09-27T12:51:52.570Z,38.50
2018-09-27T12:54:20.647Z,38.00
2018-09-27T12:56:48.857Z,37.90
2018-09-27T12:59:17.104Z,38.10
2018-09-27T13:01:45.315Z,38.40
2018-09-27T13:04:13.473Z,37.80
2018-09-27T13:06:41.712Z,37.20
2018-09-27T13:09:10.461Z,37.40
2018-09-27T13:11:40.767Z,38.00
2018-09-27T13:14:06.903Z,38.40
2018-09-27T13:16:35.106Z,38.80
2018-09-27T13:19:03.353Z,38.30
2018-09-27T13:21:31.626Z,38.30
2018-09-27T13:23:59.775Z,38.20
2018-09-27T13:26:27.990Z,38.20
2018-09-27T13:28:56.173Z,38.40
2018-09-27T13:31:24.402Z,38.30
2018-09-27T13:33:52.700Z,38.10
2018-09-27T13:36:20.876Z,37.70
2018-09-27T13:38:49.058Z,37.60
2018-09-27T13:41:17.299Z,38.00
2018-09-27T13:43:45.492Z,38.40
2018-09-27T13:46:13.676Z,38.60
2018-09-27T13:48:41.900Z,38.40
2018-09-27T13:51:10.247Z,38.10
2018-09-27T13:53:38.354Z,37.70
2018-09-27T13:56:06.538Z,37.80
2018-09-27T13:58:34.788Z,38.00
2018-09-27T14:01:03.248Z,38.30
2018-09-27T14:03:31.664Z,38.70
2018-09-27T14:05:59.922Z,38.80
2018-09-27T14:08:28.104Z,38.20
2018-09-27T14:10:56.327Z,37.60
2018-09-27T14:13:24.590Z,37.20
2018-09-27T14:15:52.858Z,36.90
2018-09-27T14:18:21.119Z,36.80
2018-09-27T14:20:49.379Z,37.10
2018-09-27T14:23:17.639Z,37.20
2018-09-27T14:25:45.857Z,37.40
2018-09-27T14:28:14.025Z,37.60
2018-09-27T14:30:42.272Z,37.90
2018-09-27T14:33:10.514Z,38.20
2018-09-27T14:35:38.784Z,37.90
2018-09-27T14:38:06.979Z,37.80
2018-09-27T14:40:35.158Z,37.80
2018-09-27T14:43:03.354Z,37.70
2018-09-27T14:45:31.574Z,37.70
2018-09-27T14:48:03.025Z,37.60
2018-09-27T14:50:31.200Z,37.00
2018-09-27T14:52:59.480Z,36.40
2018-09-27T14:55:27.752Z,35.90
2018-09-27T14:57:55.986Z,34.90
2018-09-27T15:00:24.185Z,33.70
2018-09-27T15:02:52.638Z,32.30
2018-09-27T15:05:20.794Z,31.20
2018-09-27T15:07:48.996Z,30.50
2018-09-27T15:10:17.319Z,29.60
2018-09-27T15:12:45.664Z,29.00
2018-09-27T15:15:13.752Z,28.50
2018-09-27T15:17:41.988Z,28.00
2018-09-27T15:20:10.987Z,27.80
2018-09-27T15:22:39.419Z,27.50
2018-09-27T15:25:07.643Z,27.30
2018-09-27T15:27:35.832Z,26.90
2018-09-27T15:30:04.836Z,26.60
2018-09-27T15:32:33.044Z,26.30
2018-09-27T15:35:01.303Z,26.00
2018-09-27T15:37:29.573Z,25.70
2018-09-27T15:39:57.975Z,25.50
2018-09-27T15:42:26.134Z,25.30
2018-09-27T15:44:54.333Z,25.20
2018-09-27T15:47:22.503Z,25.20
2018-09-27T15:49:50.696Z,25.20
2018-09-27T15:52:18.975Z,25.20
2018-09-27T15:54:47.157Z,25.20
2018-09-27T15:57:15.360Z,25.10
2018-09-27T15:59:43.584Z,25.10
2018-09-27T16:02:11.850Z,25.20
2018-09-27T16:04:40.045Z,25.10
2018-09-27T16:07:08.230Z,25.00
2018-09-27T16:09:36.490Z,24.90
2018-09-27T16:12:04.753Z,24.80
2018-09-27T16:14:32.960Z,24.80
2018-09-27T16:17:01.228Z,24.60
2018-09-27T16:19:29.399Z,24.50
2018-09-27T16:21:57.621Z,24.40
2018-09-27T16:24:25.831Z,24.30
2018-09-27T16:26:54.352Z,24.30
2018-09-27T16:29:22.551Z,24.30
2018-09-27T16:31:50.772Z,24.40
2018-09-27T16:34:19.056Z,24.30
2018-09-27T16:36:47.426Z,24.20
2018-09-27T16:39:15.635Z,24.20
2018-09-27T16:41:44.028Z,24.10
2018-09-27T16:44:12.158Z,24.00
2018-09-27T16:46:41.381Z,23.80
2018-09-27T16:49:09.704Z,23.50
2018-09-27T16:51:37.900Z,23.40
2018-09-27T16:54:06.100Z,23.20
2018-09-27T16:56:34.528Z,23.00
2018-09-27T16:59:02.745Z,22.80
2018-09-27T17:01:30.932Z,22.60
2018-09-27T17:03:59.130Z,22.40
2018-09-27T17:06:27.322Z,22.10
2018-09-27T17:08:55.503Z,21.90
2018-09-27T17:11:23.786Z,21.70
2018-09-27T17:13:52.020Z,21.50
2018-09-27T17:16:20.210Z,21.30
2018-09-27T17:18:48.514Z,21.20
2018-09-27T17:21:16.698Z,21.00
2018-09-27T17:23:44.981Z,20.80
2018-09-27T17:26:13.095Z,20.70
2018-09-27T17:28:41.385Z,20.50
2018-09-27T17:31:09.764Z,20.40
2018-09-27T17:33:37.968Z,20.30
2018-09-27T17:36:06.234Z,20.20
2018-09-27T17:38:34.460Z,20.20
2018-09-27T17:41:02.726Z,20.10
2018-09-27T17:43:30.950Z,20.10
2018-09-27T17:45:59.207Z,20.00
2018-09-27T17:48:27.376Z,19.90
2018-09-27T17:50:55.575Z,19.90
2018-09-27T17:53:23.960Z,19.70
2018-09-27T17:55:52.176Z,19.60
2018-09-27T17:58:20.366Z,19.40
2018-09-27T18:00:48.820Z,19.20
2018-09-27T18:03:17.057Z,19.10
2018-09-27T18:05:45.385Z,18.90
2018-09-27T18:08:13.598Z,18.80
2018-09-27T18:10:41.801Z,18.70
2018-09-27T18:13:10.111Z,18.60
2018-09-27T18:15:38.286Z,18.50
2018-09-27T18:18:06.519Z,18.50
2018-09-27T18:20:34.806Z,18.40
2018-09-27T18:23:03.084Z,18.30
2018-09-27T18:25:31.321Z,18.20
2018-09-27T18:27:59.567Z,18.10
2018-09-27T18:30:27.763Z,18.10
2018-09-27T18:32:56.072Z,18.00
2018-09-27T18:35:24.273Z,18.00
2018-09-27T18:37:52.542Z,18.00
2018-09-27T18:40:20.687Z,17.90
2018-09-27T18:42:48.942Z,17.80
2018-09-27T18:45:17.151Z,17.80
2018-09-27T18:47:45.346Z,17.80
2018-09-27T18:50:13.559Z,17.70
2018-09-27T18:52:41.806Z,17.60
2018-09-27T18:55:09.996Z,17.50
2018-09-27T18:57:38.214Z,17.30
2018-09-27T19:00:06.616Z,17.30
2018-09-27T19:02:35.000Z,17.20
2018-09-27T19:05:03.216Z,17.10
2018-09-27T19:07:31.412Z,17.00
2018-09-27T19:09:59.621Z,16.90
2018-09-27T19:12:27.812Z,16.80
2018-09-27T19:14:56.308Z,16.70
2018-09-27T19:17:24.529Z,16.60
2018-09-27T19:19:52.714Z,16.50
2018-09-27T19:22:20.927Z,16.50
2018-09-27T19:24:49.126Z,16.40
2018-09-27T19:27:17.314Z,16.40
2018-09-27T19:29:45.564Z,16.30
2018-09-27T19:32:13.752Z,16.30
2018-09-27T19:34:41.980Z,16.30
2018-09-27T19:37:10.171Z,16.20
2018-09-27T19:39:38.376Z,16.20
2018-09-27T19:42:06.569Z,16.20
2018-09-27T19:44:34.780Z,16.20
2018-09-27T19:47:02.993Z,16.10
2018-09-27T19:49:31.225Z,16.10
2018-09-27T19:51:59.452Z,16.00
2018-09-27T19:54:27.645Z,15.90
2018-09-27T19:56:55.844Z,15.90
2018-09-27T19:59:24.044Z,15.80
2018-09-27T20:01:52.255Z,15.80
2018-09-27T20:04:20.508Z,15.80
2018-09-27T20:06:48.660Z,15.70
2018-09-27T20:09:16.872Z,15.70
2018-09-27T20:11:45.079Z,15.60
2018-09-27T20:14:13.277Z,15.60
2018-09-27T20:16:41.767Z,15.60
2018-09-27T20:19:10.164Z,15.50
2018-09-27T20:21:38.765Z,15.40
2018-09-27T20:24:07.334Z,15.30
2018-09-27T20:26:35.524Z,15.20
2018-09-27T20:29:03.802Z,15.10
2018-09-27T20:31:32.010Z,15.00
2018-09-27T20:34:00.260Z,15.00
2018-09-27T20:36:28.568Z,14.90
2018-09-27T20:38:57.046Z,14.80
2018-09-27T20:41:25.273Z,14.70
2018-09-27T20:43:53.454Z,14.70
2018-09-27T20:46:21.646Z,14.60
2018-09-27T20:48:49.838Z,14.60
2018-09-27T20:51:18.065Z,14.60
2018-09-27T20:53:46.256Z,14.50
2018-09-27T20:56:14.460Z,14.50
2018-09-27T20:58:42.716Z,14.50
2018-09-27T21:01:10.912Z,14.50
2018-09-27T21:03:39.128Z,14.50
2018-09-27T21:06:07.592Z,14.50
2018-09-27T21:08:35.817Z,14.40
2018-09-27T21:11:04.001Z,14.40
2018-09-27T21:13:32.237Z,14.30
2018-09-27T21:16:00.462Z,14.30
2018-09-27T21:18:28.699Z,14.30
2018-09-27T21:20:56.927Z,14.20
2018-09-27T21:23:25.172Z,14.20
2018-09-27T21:25:53.416Z,14.20
2018-09-27T21:28:21.617Z,14.10
2018-09-27T21:30:49.815Z,14.10
2018-09-27T21:33:18.027Z,14.10
2018-09-27T21:35:46.240Z,14.10
2018-09-27T21:38:14.801Z,14.00
2018-09-27T21:40:42.985Z,14.00
2018-09-27T21:43:11.228Z,14.00
2018-09-27T21:45:39.416Z,14.00
2018-09-27T21:48:07.617Z,13.90
2018-09-27T21:50:35.823Z,14.00
2018-09-27T21:53:04.097Z,13.90
2018-09-27T21:55:32.373Z,13.80
2018-09-27T21:58:00.619Z,13.80
2018-09-27T22:00:28.821Z,13.80
2018-09-27T22:02:57.092Z,13.70
2018-09-27T22:05:25.314Z,13.60
2018-09-27T22:07:53.535Z,13.60
2018-09-27T22:10:21.725Z,13.50
2018-09-27T22:12:49.948Z,13.50
2018-09-27T22:15:18.113Z,13.50
2018-09-27T22:17:46.315Z,13.50
2018-09-27T22:20:14.525Z,13.50
2018-09-27T22:22:43.104Z,13.50
2018-09-27T22:25:11.386Z,13.50
2018-09-27T22:27:39.863Z,13.40
2018-09-27T22:30:08.546Z,13.40
2018-09-27T22:32:36.732Z,13.40
2018-09-27T22:35:05.008Z,13.40
2018-09-27T22:37:33.237Z,13.40
2018-09-27T22:40:01.443Z,13.30
2018-09-27T22:42:29.625Z,13.30
2018-09-27T22:44:57.831Z,13.20
2018-09-27T22:47:26.029Z,13.20
2018-09-27T22:49:54.262Z,13.20
2018-09-27T22:52:22.451Z,13.20
2018-09-27T22:54:50.715Z,13.10
2018-09-27T22:57:18.892Z,13.10
2018-09-27T22:59:47.109Z,13.10
2018-09-27T23:02:15.315Z,13.10
2018-09-27T23:04:43.506Z,13.10
2018-09-27T23:07:11.729Z,13.10
2018-09-27T23:09:39.955Z,13.10
2018-09-27T23:12:08.331Z,13.10
2018-09-27T23:14:36.538Z,13.10
2018-09-27T23:17:04.733Z,13.10
2018-09-27T23:19:32.942Z,13.10
2018-09-27T23:22:01.135Z,13.10
2018-09-27T23:24:29.377Z,13.00
2018-09-27T23:26:57.617Z,13.00
2018-09-27T23:29:25.824Z,13.00
2018-09-27T23:31:54.018Z,13.00
2018-09-27T23:34:22.231Z,13.00
2018-09-27T23:36:50.427Z,13.00
2018-09-27T23:39:18.637Z,13.00
2018-09-27T23:41:46.832Z,13.00
2018-09-27T23:44:15.100Z,12.90
2018-09-27T23:46:43.429Z,12.90
2018-09-27T23:49:11.687Z,12.90
2018-09-27T23:51:39.885Z,12.90
2018-09-27T23:54:08.169Z,12.90
2018-09-27T23:56:36.365Z,12.90
2018-09-27T23:59:04.580Z,12.90
